Time;durP1;ratioP1;P1;durP2;ratioP2;P2;SDS_P1;SDS_P2;PMS_P1;PMS_P2;Temp;Humidity;BMP_temperature;BMP_pressure;BME280_temperature;BME280_humidity;BME280_pressure;Samples;Min_cycle;Max_cycle;Signal;HPM_P1;HPM_P2
2022/06/15 00:01:57;;;;;;;8.33;5.00;;;;;;;-143.84;96.04;45049.06;5007076;28;20548;-74
2022/06/15 00:04:29;;;;;;;4.33;4.10;;;;;;;-143.84;96.03;45041.44;5006958;28;20488;-75
2022/06/15 00:06:56;;;;;;;4.70;4.20;;;;;;;-143.84;96.03;45020.50;5007168;28;20546;-75
2022/06/15 00:09:23;;;;;;;5.00;4.53;;;;;;;-143.84;96.10;45047.16;5005428;28;20443;-74
2022/06/15 00:11:50;;;;;;;4.50;4.20;;;;;;;-143.84;96.24;45045.25;5005533;28;20455;-74
2022/06/15 00:14:20;;;;;;;6.60;4.47;;;;;;;-143.84;96.55;45045.25;5005954;28;20435;-74
2022/06/15 00:16:47;;;;;;;4.23;4.00;;;;;;;-143.84;96.13;45077.63;5006460;28;20451;-74
2022/06/15 00:19:14;;;;;;;5.33;4.93;;;;;;;-143.84;96.57;45052.88;5006387;28;20444;-74
2022/06/15 00:21:43;;;;;;;4.93;4.50;;;;;;;-143.84;96.61;45068.13;5007296;28;20483;-74
2022/06/15 00:24:11;;;;;;;5.43;4.60;;;;;;;-143.84;96.75;45030.03;5006825;28;20440;-74
2022/06/15 00:26:39;;;;;;;4.70;4.33;;;;;;;-143.84;96.61;45077.63;5006336;28;20531;-74
2022/06/15 00:29:06;;;;;;;7.70;4.83;;;;;;;-143.84;96.45;45075.72;5006430;28;20547;-74
2022/06/15 00:31:33;;;;;;;5.93;4.60;;;;;;;-143.84;96.42;45073.81;5006641;28;20459;-74
2022/06/15 00:34:01;;;;;;;7.83;4.97;;;;;;;-143.84;96.59;45045.25;5006757;28;20455;-74
2022/06/15 00:36:29;;;;;;;5.43;4.00;;;;;;;-143.84;96.76;45049.06;5006687;28;20796;-73
2022/06/15 00:39:00;;;;;;;5.63;5.13;;;;;;;-143.84;96.85;45045.25;5006730;28;20443;-74
2022/06/15 00:41:30;;;;;;;5.73;4.40;;;;;;;-143.84;96.75;45062.41;5006589;28;20547;-74
2022/06/15 00:44:00;;;;;;;5.93;5.40;;;;;;;-143.84;96.61;45058.59;5006231;28;20439;-73
2022/06/15 00:46:29;;;;;;;5.40;4.90;;;;;;;-143.84;96.71;45064.31;5006664;28;20459;-74
2022/06/15 00:49:01;;;;;;;4.67;4.37;;;;;;;-143.84;97.01;45018.59;5006386;28;20473;-74
2022/06/15 00:51:30;;;;;;;5.50;5.10;;;;;;;-143.84;97.10;45039.53;5006574;28;20516;-74
2022/06/15 00:54:00;;;;;;;5.47;5.07;;;;;;;-143.84;97.07;45049.06;5006521;28;20436;-74
2022/06/15 00:56:29;;;;;;;7.83;4.50;;;;;;;-143.84;97.35;45050.97;5006248;28;20448;-74
2022/06/15 00:59:00;;;;;;;7.10;4.70;;;;;;;-143.84;97.37;45049.06;5009851;28;20520;-74
2022/06/15 01:01:28;;;;;;;8.50;4.40;;;;;;;-143.84;97.08;45060.50;5009827;28;21059;-74
2022/06/15 01:03:57;;;;;;;6.00;4.80;;;;;;;-143.84;96.61;45077.63;5009331;28;20483;-74
2022/06/15 01:06:36;;;;;;;4.93;4.53;;;;;;;-143.84;96.32;45052.88;5009615;28;20450;-74
2022/06/15 01:09:11;;;;;;;6.80;4.50;;;;;;;-143.84;96.26;45037.66;5009971;28;20473;-74
2022/06/15 01:12:01;;;;;;;4.53;4.13;;;;;;;-143.84;96.03;45100.47;5009812;28;21121;-75
2022/06/15 01:14:44;;;;;;;9.50;4.50;;;;;;;-143.84;95.68;45066.22;5009942;28;20435;-75
2022/06/15 01:17:26;;;;;;;10.10;4.13;;;;;;;-143.84;95.31;45056.69;5009859;28;20475;-75
2022/06/15 01:20:31;;;;;;;4.90;4.60;;;;;;;-143.84;95.22;45068.13;5010050;28;20439;-74
2022/06/15 01:23:35;;;;;;;5.33;3.93;;;;;;;-143.84;94.88;45071.91;5009727;28;20501;-74
2022/06/15 01:26:26;;;;;;;8.03;4.40;;;;;;;-143.84;94.45;45075.72;5009798;28;20522;-74
2022/06/15 01:28:56;;;;;;;4.60;4.40;;;;;;;-143.84;94.54;45077.63;5009434;28;20447;-74
2022/06/15 01:31:31;;;;;;;7.20;4.07;;;;;;;-143.84;94.14;45068.13;5009492;28;20439;-74
2022/06/15 01:34:10;;;;;;;4.80;4.50;;;;;;;-143.84;93.68;45064.31;5009478;28;20512;-74
2022/06/15 01:36:45;;;;;;;5.40;4.23;;;;;;;-143.84;93.69;45060.50;5009670;28;20432;-74
2022/06/15 01:39:19;;;;;;;5.03;4.20;;;;;;;-143.84;93.94;45090.97;5009827;28;20515;-74
2022/06/15 01:41:53;;;;;;;3.70;3.50;;;;;;;-143.84;93.88;45075.72;5009480;28;20486;-74
2022/06/15 01:44:26;;;;;;;4.53;4.20;;;;;;;-143.84;93.81;45081.44;5009346;28;20442;-74
2022/06/15 01:46:56;;;;;;;3.97;3.63;;;;;;;-143.84;93.75;45056.69;5009536;28;20514;-74
2022/06/15 01:49:28;;;;;;;7.70;4.00;;;;;;;-143.84;93.65;45073.81;5009330;28;20830;-74
2022/06/15 01:51:58;;;;;;;5.00;4.60;;;;;;;-143.84;93.14;45083.34;5009266;28;20516;-74
2022/06/15 01:54:30;;;;;;;10.40;4.97;;;;;;;-143.84;92.91;45071.91;5008829;28;20451;-74
2022/06/15 01:57:00;;;;;;;4.20;3.63;;;;;;;-143.84;92.72;45073.81;5007965;28;20448;-74
2022/06/15 01:59:34;;;;;;;7.87;4.80;;;;;;;-143.84;92.64;45056.69;5009248;28;20462;-74
2022/06/15 02:02:11;;;;;;;5.20;4.70;;;;;;;-143.84;92.81;45098.56;5008956;28;20888;-74
2022/06/15 02:04:45;;;;;;;7.77;4.00;;;;;;;-143.84;91.97;45075.72;5008413;28;20547;-74
2022/06/15 02:07:30;;;;;;;12.10;5.37;;;;;;;-143.84;92.09;45064.31;5008363;28;20834;-74
2022/06/15 02:10:01;;;;;;;9.37;4.40;;;;;;;-143.84;92.20;45064.31;5006885;28;20462;-74
2022/06/15 02:12:34;;;;;;;9.70;4.07;;;;;;;-143.84;91.86;45062.41;5008371;28;20477;-74
2022/06/15 02:15:05;;;;;;;7.80;4.23;;;;;;;-143.84;91.92;45075.72;5008253;28;20447;-73
2022/06/15 02:17:38;;;;;;;4.60;4.20;;;;;;;-143.84;91.79;45083.34;5008275;28;20508;-74
2022/06/15 02:20:11;;;;;;;5.90;3.70;;;;;;;-143.84;91.75;45083.34;5007856;28;20894;-74
2022/06/15 02:22:40;;;;;;;4.80;3.77;;;;;;;-143.84;91.35;45071.91;5008382;28;20573;-74
2022/06/15 02:25:14;;;;;;;4.00;3.53;;;;;;;-143.84;91.32;45073.81;5008666;28;20544;-74
2022/06/15 02:27:43;;;;;;;7.87;3.97;;;;;;;-143.84;91.56;45111.91;5008606;28;20440;-75
2022/06/15 02:30:16;;;;;;;4.27;3.97;;;;;;;-143.84;91.53;45062.41;5008392;28;20849;-74
2022/06/15 02:32:47;;;;;;;6.23;4.33;;;;;;;-143.84;91.35;45104.28;5008250;28;21378;-74
2022/06/15 02:35:14;;;;;;;4.50;4.20;;;;;;;-143.84;91.24;45087.16;5008807;28;20821;-74
2022/06/15 02:37:42;;;;;;;4.87;4.43;;;;;;;-143.84;90.98;45098.56;5008386;28;20500;-75
2022/06/15 02:40:11;;;;;;;4.47;3.90;;;;;;;-143.84;90.73;45070.00;5008517;28;20961;-74
2022/06/15 02:42:41;;;;;;;7.10;5.40;;;;;;;-143.84;90.55;45089.06;5008664;28;20487;-74
2022/06/15 02:45:13;;;;;;;11.30;5.30;;;;;;;-143.84;90.33;45113.81;5009197;28;20578;-74
2022/06/15 02:47:42;;;;;;;4.70;4.40;;;;;;;-143.84;90.39;45077.63;5009693;28;20478;-73
2022/06/15 02:50:13;;;;;;;4.27;3.97;;;;;;;-143.84;90.10;45071.91;5009573;28;20435;-73
2022/06/15 02:52:44;;;;;;;8.07;3.90;;;;;;;-143.84;89.98;45071.91;5009171;28;20999;-73
2022/06/15 02:55:12;;;;;;;5.03;4.30;;;;;;;-143.84;90.09;45089.06;5001473;28;20518;-73
2022/06/15 02:57:46;;;;;;;6.67;4.53;;;;;;;-143.84;89.66;45110.00;4988911;28;20910;-74
2022/06/15 03:00:15;;;;;;;8.20;4.30;;;;;;;-143.84;89.58;45098.56;4988671;28;20448;-73
2022/06/15 03:02:43;;;;;;;10.23;4.50;;;;;;;-143.84;89.45;45066.22;4988474;28;20525;-74
2022/06/15 03:05:11;;;;;;;5.97;4.27;;;;;;;-143.84;88.74;45071.91;4988030;28;20988;-74
2022/06/15 03:07:39;;;;;;;4.43;4.03;;;;;;;-143.84;88.46;45089.06;4988636;28;20456;-74
2022/06/15 03:10:07;;;;;;;4.50;4.10;;;;;;;-143.84;88.76;45102.38;4988488;28;20444;-74
2022/06/15 03:12:34;;;;;;;4.23;3.60;;;;;;;-143.84;88.81;45081.44;4988429;28;20936;-73
2022/06/15 03:15:01;;;;;;;11.20;4.70;;;;;;;-143.84;88.44;45104.28;4988423;28;20521;-74
2022/06/15 03:17:29;;;;;;;10.60;4.17;;;;;;;-143.84;88.43;45073.81;4987441;28;20509;-74
2022/06/15 03:19:56;;;;;;;8.67;4.10;;;;;;;-143.84;88.44;45071.91;4987533;28;20516;-74
2022/06/15 03:22:25;;;;;;;4.40;4.00;;;;;;;-143.84;87.90;45066.22;4988444;28;20544;-73
2022/06/15 03:24:52;;;;;;;5.00;4.20;;;;;;;-143.84;87.48;45092.88;4988483;28;21247;-73
2022/06/15 03:27:19;;;;;;;7.23;3.90;;;;;;;-143.84;87.23;45077.63;4988457;28;21027;-74
2022/06/15 03:29:47;;;;;;;6.63;4.30;;;;;;;-143.84;86.75;45068.13;4988464;28;20448;-73
2022/06/15 03:32:15;;;;;;;4.90;3.93;;;;;;;-143.84;86.27;45075.72;4988660;28;20539;-73
2022/06/15 03:34:43;;;;;;;6.97;4.43;;;;;;;-143.84;86.13;45070.00;4988190;28;20977;-73
2022/06/15 03:37:11;;;;;;;4.67;4.20;;;;;;;-143.84;86.07;45077.63;4988239;28;20796;-73
2022/06/15 03:39:41;;;;;;;4.43;4.03;;;;;;;-143.84;85.52;45094.78;4988326;28;21190;-73
2022/06/15 03:42:10;;;;;;;4.63;3.70;;;;;;;-143.84;85.30;45110.00;4987881;28;20448;-74
2022/06/15 03:44:37;;;;;;;4.57;4.27;;;;;;;-143.84;85.30;45075.72;4987838;28;20444;-74
2022/06/15 03:47:05;;;;;;;6.20;4.03;;;;;;;-143.84;85.21;45071.91;4987910;28;20445;-74
2022/06/15 03:49:33;;;;;;;4.73;4.27;;;;;;;-143.84;84.97;45111.91;4987674;28;20483;-73
2022/06/15 03:52:00;;;;;;;10.97;4.17;;;;;;;-143.84;84.57;45092.88;5172125;23;21386;-76
2022/06/15 03:54:27;;;;;;;4.80;4.20;;;;;;;-143.84;84.44;45060.50;4946072;29;20571;-76
2022/06/15 03:56:56;;;;;;;4.20;3.80;;;;;;;-143.84;84.45;45060.50;4947173;28;20453;-76
2022/06/15 03:59:24;;;;;;;4.97;3.77;;;;;;;-143.84;84.61;45077.63;4946430;29;20442;-76
2022/06/15 04:01:51;;;;;;;6.37;3.60;;;;;;;-143.84;84.63;45079.53;4947298;29;20446;-77
2022/06/15 04:04:18;;;;;;;8.70;3.83;;;;;;;-143.84;84.34;45077.63;4947384;29;20924;-77
2022/06/15 04:06:46;;;;;;;4.27;3.87;;;;;;;-143.84;84.16;45087.16;4948081;29;20461;-76
2022/06/15 04:09:13;;;;;;;3.50;3.27;;;;;;;-143.84;82.95;45123.34;4947967;28;20450;-76
2022/06/15 04:14:27;;;;;;;4.60;4.10;;;;;;;-143.84;83.70;45075.72;4947796;29;20929;-76
2022/06/15 04:16:54;;;;;;;11.00;4.23;;;;;;;-143.84;84.63;45077.63;4948081;28;20449;-77
2022/06/15 04:19:22;;;;;;;4.13;3.90;;;;;;;-143.84;83.45;45090.97;4948356;29;20458;-76
2022/06/15 04:21:49;;;;;;;8.03;4.20;;;;;;;-143.84;83.03;45079.53;4948076;29;20454;-76
2022/06/15 04:24:17;;;;;;;5.63;3.43;;;;;;;-143.84;82.95;45070.00;4948147;29;20478;-76
2022/06/15 04:26:46;;;;;;;3.80;3.43;;;;;;;-143.84;82.72;45077.63;4948183;29;20450;-77
2022/06/15 04:29:14;;;;;;;4.27;3.20;;;;;;;-143.84;82.50;45090.97;4947383;29;20515;-77
2022/06/15 04:31:43;;;;;;;4.87;4.50;;;;;;;-143.84;82.10;45090.97;4946939;29;20435;-77
2022/06/15 04:34:11;;;;;;;5.80;4.00;;;;;;;-143.84;81.84;45083.34;4947794;29;20446;-77
2022/06/15 04:36:40;;;;;;;8.07;4.10;;;;;;;-143.84;81.42;45075.72;4948129;29;20454;-77
2022/06/15 04:39:10;;;;;;;3.97;3.60;;;;;;;-143.84;80.99;45090.97;4947730;29;20445;-77
2022/06/15 04:41:38;;;;;;;6.30;3.73;;;;;;;-143.84;80.50;45073.81;4948203;29;20438;-77
2022/06/15 04:44:07;;;;;;;3.80;3.33;;;;;;;-143.84;78.63;45045.25;4947589;29;21003;-78
2022/06/15 04:46:35;;;;;;;5.03;3.63;;;;;;;-143.84;74.43;45043.34;4947282;28;20449;-78
2022/06/15 04:49:05;;;;;;;6.77;3.80;;;;;;;-143.84;72.71;45020.50;4947194;29;20449;-78
2022/06/15 04:51:41;;;;;;;5.70;2.90;;;;;;;-143.84;69.46;45028.13;4947837;28;20826;-78
2022/06/15 04:54:09;;;;;;;3.53;2.83;;;;;;;-143.84;66.94;45037.66;4947650;29;20498;-78
2022/06/15 04:56:38;;;;;;;4.73;3.17;;;;;;;-143.84;66.61;45020.50;4947831;29;20455;-78
2022/06/15 04:59:05;;;;;;;3.07;2.83;;;;;;;-143.84;62.92;45075.72;4947794;28;20438;-78
2022/06/15 05:01:32;;;;;;;3.00;2.57;;;;;;;-143.84;62.23;45049.06;4947729;29;20437;-78
2022/06/15 05:03:59;;;;;;;10.53;3.20;;;;;;;-143.84;61.72;45033.84;4947593;29;20504;-78
2022/06/15 05:06:35;;;;;;;10.97;3.40;;;;;;;-143.84;61.78;45035.75;4947746;29;20442;-74
2022/06/15 05:09:02;;;;;;;7.20;3.50;;;;;;;-143.84;59.20;44999.56;4947471;29;20442;-75
2022/06/15 05:11:29;;;;;;;2.97;2.77;;;;;;;-143.84;57.65;45020.50;4947009;29;20870;-75
2022/06/15 05:13:57;;;;;;;3.30;2.53;;;;;;;-143.84;55.93;45018.59;4946645;29;20438;-74
2022/06/15 05:16:24;;;;;;;2.20;2.10;;;;;;;-143.84;53.76;45030.03;4947192;28;20458;-75
2022/06/15 05:18:51;;;;;;;11.50;2.70;;;;;;;-143.84;54.78;45014.78;4946627;29;20438;-75
2022/06/15 05:21:19;;;;;;;5.10;2.80;;;;;;;-143.84;51.01;45010.97;4946650;29;20465;-78
2022/06/15 05:23:47;;;;;;;12.30;3.50;;;;;;;-143.84;50.42;45005.28;4947067;29;20529;-78
2022/06/15 05:26:15;;;;;;;3.93;2.77;;;;;;;-143.84;51.49;44995.75;4947167;29;20461;-78
2022/06/15 05:28:44;;;;;;;10.37;2.13;;;;;;;-143.84;48.64;45020.50;4946796;28;20442;-78
2022/06/15 05:31:16;;;;;;;4.90;2.50;;;;;;;-143.84;47.57;44995.75;4946916;29;20445;-78
2022/06/15 05:33:44;;;;;;;6.70;2.40;;;;;;;-143.84;47.54;44999.56;4947158;29;20449;-78
2022/06/15 05:36:13;;;;;;;2.50;2.30;;;;;;;-143.84;45.67;44982.41;4947202;28;21144;-78
2022/06/15 05:38:41;;;;;;;3.80;2.40;;;;;;;-143.84;45.32;44967.19;4946435;29;20446;-78
2022/06/15 05:41:10;;;;;;;2.60;2.50;;;;;;;-143.84;44.03;44965.28;4947158;29;20442;-78
2022/06/15 05:43:40;;;;;;;2.60;2.40;;;;;;;-143.84;42.71;44972.91;4947769;28;20519;-78
2022/06/15 05:46:15;;;;;;;8.40;2.37;;;;;;;-143.84;43.15;44971.00;4950502;29;20438;-78
2022/06/15 05:48:42;;;;;;;2.67;2.47;;;;;;;-143.84;42.56;44982.41;4950462;29;20449;-78
2022/06/15 05:51:09;;;;;;;7.13;2.43;;;;;;;-143.84;42.42;44965.28;4950753;29;20442;-78
2022/06/15 05:53:36;;;;;;;2.80;2.50;;;;;;;-143.84;42.69;44980.53;4950219;29;20481;-78
2022/06/15 05:56:04;;;;;;;3.67;2.43;;;;;;;-143.84;41.26;44963.38;4950739;28;20504;-78
2022/06/15 05:58:32;;;;;;;4.23;2.60;;;;;;;-143.84;40.68;44955.75;4950447;29;20948;-78
2022/06/15 06:01:07;;;;;;;7.10;2.43;;;;;;;-143.84;40.47;44986.22;4950595;29;20450;-78
2022/06/15 06:03:35;;;;;;;7.83;2.43;;;;;;;-143.84;40.43;44953.88;4950182;29;20477;-78
2022/06/15 06:06:02;;;;;;;2.03;1.90;;;;;;;-143.84;39.98;44982.41;4950289;29;20442;-77
2022/06/15 06:08:29;;;;;;;4.07;2.97;;;;;;;-143.84;39.43;44957.66;4950762;29;20492;-78
2022/06/15 06:10:57;;;;;;;4.80;2.47;;;;;;;-143.84;38.12;44951.97;4950391;29;20439;-78
2022/06/15 06:13:24;;;;;;;4.03;2.33;;;;;;;-143.84;38.44;44934.81;4950447;29;20446;-78
2022/06/15 06:15:55;;;;;;;7.13;2.10;;;;;;;-143.84;38.58;44927.19;4950202;28;20454;-78
2022/06/15 06:18:23;;;;;;;3.87;1.90;;;;;;;-143.84;37.58;44929.09;4950348;28;20979;-78
2022/06/15 06:20:50;;;;;;;6.27;2.63;;;;;;;-143.84;37.72;44938.63;4949811;29;20446;-78
2022/06/15 06:23:17;;;;;;;4.30;2.43;;;;;;;-143.84;37.96;44915.78;4949834;29;20482;-78
2022/06/15 06:25:47;;;;;;;3.97;2.63;;;;;;;-143.84;36.76;44957.66;4949850;29;20454;-78
2022/06/15 06:28:25;;;;;;;2.87;2.00;;;;;;;-143.84;37.59;44934.81;4949912;29;20457;-77
2022/06/15 06:30:54;;;;;;;6.10;2.00;;;;;;;-143.84;37.35;44929.09;4949752;29;20446;-78
2022/06/15 06:33:21;;;;;;;2.70;2.17;;;;;;;-143.84;36.64;44919.59;4949460;29;20443;-78
2022/06/15 06:35:48;;;;;;;6.40;2.67;;;;;;;-143.84;37.55;44925.31;4949299;28;20496;-78
2022/06/15 06:38:16;;;;;;;6.80;3.07;;;;;;;-143.84;37.94;44936.72;4949402;29;20473;-78
2022/06/15 06:40:43;;;;;;;6.73;1.93;;;;;;;-143.84;37.21;44946.25;4949891;29;20457;-78
2022/06/15 06:43:10;;;;;;;4.10;2.53;;;;;;;-143.84;37.85;44944.34;4949678;29;20486;-77
2022/06/15 06:45:37;;;;;;;2.60;2.40;;;;;;;-143.84;38.81;44951.97;4949861;29;20461;-77
2022/06/15 06:48:07;;;;;;;2.60;2.40;;;;;;;-143.84;38.06;44923.41;4949792;28;20450;-77
2022/06/15 06:50:35;;;;;;;5.27;2.73;;;;;;;-143.84;38.38;44955.75;4949904;29;20447;-77
2022/06/15 06:53:02;;;;;;;3.20;2.80;;;;;;;-143.84;38.62;44929.09;4949131;28;20547;-77
2022/06/15 06:55:32;;;;;;;4.93;2.27;;;;;;;-143.84;40.01;44967.19;4948691;29;20446;-76
2022/06/15 06:58:01;;;;;;;7.73;2.43;;;;;;;-143.84;40.23;44927.19;4949817;28;20474;-76
2022/06/15 07:00:30;;;;;;;2.50;2.30;;;;;;;-143.84;39.31;44946.25;4959160;28;20460;-76
2022/06/15 07:02:59;;;;;;;6.00;2.37;;;;;;;-143.84;39.23;44955.75;4953845;28;20454;-77
2022/06/15 07:05:27;;;;;;;6.30;2.87;;;;;;;-143.84;38.55;44951.97;4955471;28;20448;-73
2022/06/15 07:07:55;;;;;;;5.83;2.90;;;;;;;-143.84;40.31;44944.34;4958963;28;20956;-73
2022/06/15 07:10:22;;;;;;;5.57;2.40;;;;;;;-143.84;40.61;44974.81;4960167;28;20446;-73
2022/06/15 07:12:49;;;;;;;4.13;2.70;;;;;;;-143.84;42.00;44946.25;4968499;28;20445;-73
2022/06/15 07:15:16;;;;;;;5.50;2.33;;;;;;;-143.84;42.27;44951.97;4968212;28;20441;-73
2022/06/15 07:17:43;;;;;;;3.13;2.80;;;;;;;-143.84;41.75;44955.75;4968267;28;20812;-73
2022/06/15 07:20:12;;;;;;;2.43;2.23;;;;;;;-143.84;41.02;44967.19;4968079;28;20438;-72
2022/06/15 07:22:41;;;;;;;5.03;2.70;;;;;;;-143.84;40.73;44946.25;4967803;28;20453;-75
2022/06/15 07:25:10;;;;;;;4.20;2.27;;;;;;;-143.84;40.55;44932.91;4968057;28;20477;-75
2022/06/15 07:27:39;;;;;;;5.40;2.37;;;;;;;-143.84;40.90;44931.00;4968261;28;20437;-75
2022/06/15 07:30:09;;;;;;;2.70;2.50;;;;;;;-143.84;40.26;44929.09;4968005;28;20437;-75
2022/06/15 07:32:39;;;;;;;6.43;2.37;;;;;;;-143.84;40.26;44931.00;4968095;28;20442;-75
2022/06/15 07:35:07;;;;;;;2.60;2.40;;;;;;;-143.84;40.59;44938.63;4956340;28;20959;-75
2022/06/15 07:37:35;;;;;;;3.40;2.47;;;;;;;-143.84;40.41;44923.41;4948855;29;21058;-75
2022/06/15 07:40:04;;;;;;;2.73;2.53;;;;;;;-143.84;39.63;44938.63;4948783;28;20447;-75
2022/06/15 07:42:32;;;;;;;15.60;2.70;;;;;;;-143.84;39.18;44932.91;4948562;29;20450;-75
2022/06/15 07:44:59;;;;;;;4.23;2.47;;;;;;;-143.84;39.58;44904.34;4948207;29;20482;-75
2022/06/15 07:50:11;;;;;;;5.00;2.63;;;;;;;-143.84;39.23;44925.31;4967665;28;20571;-75
2022/06/15 07:52:41;;;;;;;2.20;2.00;;;;;;;-143.84;38.83;44887.22;4967313;28;20981;-75
2022/06/15 07:55:11;;;;;;;3.00;2.27;;;;;;;-143.84;39.58;44902.44;4967729;28;20461;-75
2022/06/15 07:57:39;;;;;;;3.67;2.20;;;;;;;-143.84;39.12;44936.72;4967763;28;20442;-75
2022/06/15 08:00:10;;;;;;;6.33;2.70;;;;;;;-143.84;39.87;44923.41;4967433;28;20955;-75
2022/06/15 08:02:37;;;;;;;4.90;2.70;;;;;;;-143.84;39.53;44929.09;4968119;28;20441;-75
2022/06/15 08:05:05;;;;;;;5.53;2.40;;;;;;;-143.84;40.36;44915.78;4967849;28;21358;-75
2022/06/15 08:07:33;;;;;;;5.03;2.37;;;;;;;-143.84;39.72;44919.59;4967163;28;21295;-75
2022/06/15 08:10:00;;;;;;;8.90;2.33;;;;;;;-143.84;41.07;44896.75;4966962;28;20442;-75
2022/06/15 08:12:28;;;;;;;7.43;3.00;;;;;;;-143.84;38.67;44894.84;4967430;28;20441;-75
2022/06/15 08:14:58;;;;;;;6.40;2.13;;;;;;;-143.84;38.15;44944.34;4967427;28;20446;-75
2022/06/15 08:17:28;;;;;;;3.93;2.60;;;;;;;-143.84;40.17;44896.75;4967111;28;20528;-75
2022/06/15 08:19:59;;;;;;;4.97;2.33;;;;;;;-143.84;38.69;44908.16;4967279;28;20456;-75
2022/06/15 08:22:27;;;;;;;2.53;2.33;;;;;;;-143.84;38.35;44942.44;4967184;28;20456;-75
2022/06/15 08:24:55;;;;;;;8.70;2.63;;;;;;;-143.84;38.28;44929.09;4967198;28;20480;-75
2022/06/15 08:27:24;;;;;;;4.03;2.47;;;;;;;-143.84;39.79;44932.91;4967594;28;20931;-75
2022/06/15 08:29:52;;;;;;;4.00;2.47;;;;;;;-143.84;39.20;44942.44;4967277;28;20510;-75
2022/06/15 08:32:20;;;;;;;4.03;2.50;;;;;;;-143.84;40.19;44934.81;4967214;28;20464;-79
2022/06/15 08:34:49;;;;;;;2.93;2.20;;;;;;;-143.84;40.48;44946.25;4967381;28;20968;-80
2022/06/15 08:37:19;;;;;;;3.30;2.73;;;;;;;-143.84;40.87;44948.16;4967290;28;20453;-79
2022/06/15 08:39:46;;;;;;;7.90;2.90;;;;;;;-143.84;41.33;44936.72;4967304;28;20943;-80
2022/06/15 08:42:22;;;;;;;4.30;2.37;;;;;;;-143.84;41.25;44934.81;4966998;28;20483;-79
2022/06/15 08:45:02;;;;;;;11.90;2.87;;;;;;;-143.84;41.38;44940.53;4967255;28;20480;-80
2022/06/15 08:47:45;;;;;;;6.97;2.90;;;;;;;-143.84;40.76;44955.75;4967247;28;21008;-80
2022/06/15 08:50:23;;;;;;;4.33;2.40;;;;;;;-143.84;41.82;44955.75;4967055;28;20514;-77
2022/06/15 08:52:57;;;;;;;5.30;2.43;;;;;;;-143.84;41.79;44936.72;4966887;28;20581;-79
2022/06/15 08:55:35;;;;;;;3.47;2.20;;;;;;;-143.84;41.42;44936.72;4967231;28;21094;-80
2022/06/15 08:58:11;;;;;;;8.03;2.70;;;;;;;-143.84;42.62;44944.34;4967091;28;20439;-79
2022/06/15 09:00:41;;;;;;;7.87;2.40;;;;;;;-143.84;41.73;44910.06;4967193;28;20526;-75
2022/06/15 09:03:24;;;;;;;4.10;3.03;;;;;;;-143.84;41.32;44915.78;4966968;28;20962;-76
2022/06/15 09:06:00;;;;;;;5.03;2.87;;;;;;;-143.84;41.85;44965.28;4967059;28;20477;-76
2022/06/15 09:08:57;;;;;;;13.53;3.40;;;;;;;-143.84;42.39;44946.25;4967233;28;20430;-75
2022/06/15 09:11:40;;;;;;;7.33;2.73;;;;;;;-143.84;42.19;44955.75;4965161;28;20510;-76
2022/06/15 09:14:26;;;;;;;5.73;2.50;;;;;;;-143.84;41.09;44938.63;4966331;28;21004;-77
2022/06/15 09:17:03;;;;;;;3.87;2.10;;;;;;;-143.84;39.99;44972.91;4966178;28;20511;-76
2022/06/15 09:19:35;;;;;;;4.20;2.20;;;;;;;-143.84;42.98;44915.78;4969275;28;20476;-79
2022/06/15 09:22:07;;;;;;;6.73;2.57;;;;;;;-143.84;39.93;44948.16;4970211;28;20429;-79
2022/06/15 09:24:46;;;;;;;7.90;2.60;;;;;;;-143.84;41.13;44940.53;4969995;28;20480;-79
2022/06/15 09:27:21;;;;;;;4.33;2.50;;;;;;;-143.84;39.75;44950.06;4969784;28;21241;-79
2022/06/15 09:29:56;;;;;;;3.83;2.30;;;;;;;-143.84;39.58;44948.16;4970134;28;20441;-79
2022/06/15 09:32:27;;;;;;;11.43;2.03;;;;;;;-143.84;39.64;44942.44;4970112;28;20444;-79
2022/06/15 09:35:00;;;;;;;2.40;2.20;;;;;;;-143.84;41.20;44923.41;4970130;28;20456;-79
2022/06/15 09:37:32;;;;;;;6.50;2.57;;;;;;;-143.84;40.57;44944.34;4970028;28;20477;-79
2022/06/15 09:39:59;;;;;;;6.73;2.90;;;;;;;-143.84;40.60;44948.16;4969788;28;20442;-79
2022/06/15 09:42:41;;;;;;;2.87;2.20;;;;;;;-143.84;40.59;44946.25;4969648;28;21020;-79
2022/06/15 09:45:17;;;;;;;3.43;2.70;;;;;;;-143.84;41.45;44951.97;4969654;28;21003;-79
2022/06/15 09:47:55;;;;;;;3.27;2.27;;;;;;;-143.84;42.01;44944.34;4969789;28;20869;-79
2022/06/15 09:50:31;;;;;;;6.30;2.30;;;;;;;-143.84;41.10;44906.25;4969586;28;20438;-79
2022/06/15 09:53:11;;;;;;;4.10;2.60;;;;;;;-143.84;42.38;44959.56;4969412;28;20500;-79
2022/06/15 09:55:42;;;;;;;4.80;2.60;;;;;;;-143.84;43.32;44913.88;4968961;28;20499;-79
2022/06/15 09:58:14;;;;;;;3.10;2.20;;;;;;;-143.84;42.03;44950.06;4969264;28;20445;-76
2022/06/15 10:00:44;;;;;;;6.33;3.13;;;;;;;-143.84;41.28;44944.34;4969052;28;20951;-76
2022/06/15 10:03:22;;;;;;;4.57;2.73;;;;;;;-143.84;42.68;44965.28;4969281;28;20445;-76
2022/06/15 10:05:52;;;;;;;2.60;1.93;;;;;;;-143.84;41.56;44940.53;4969480;28;20526;-76
2022/06/15 10:08:19;;;;;;;5.93;2.20;;;;;;;-143.84;43.74;44919.59;4969357;28;20858;-77
2022/06/15 10:10:52;;;;;;;5.77;2.60;;;;;;;-143.84;43.19;44936.72;4969230;28;20503;-76
2022/06/15 10:13:30;;;;;;;3.73;2.20;;;;;;;-143.84;42.44;44978.63;4969221;28;20515;-77
2022/06/15 10:15:59;;;;;;;2.43;2.07;;;;;;;-143.84;41.82;44911.97;4969150;28;20460;-79
2022/06/15 10:18:33;;;;;;;5.07;2.40;;;;;;;-143.84;42.85;44953.88;4969249;28;20981;-79
2022/06/15 10:21:07;;;;;;;3.77;2.67;;;;;;;-143.84;43.06;44953.88;4969138;28;20959;-79
2022/06/15 10:23:55;;;;;;;2.67;2.47;;;;;;;-143.84;44.47;44946.25;4968973;28;20449;-79
2022/06/15 10:26:39;;;;;;;4.67;2.50;;;;;;;-143.84;46.15;44938.63;4969228;28;21067;-79
2022/06/15 10:29:29;;;;;;;3.07;2.60;;;;;;;-143.84;44.04;44951.97;4968675;28;20826;-79
2022/06/15 10:32:15;;;;;;;2.23;2.13;;;;;;;-143.84;44.18;44961.47;4968794;28;20442;-79
2022/06/15 10:34:55;;;;;;;8.53;2.87;;;;;;;-143.84;45.70;44946.25;4968906;28;20445;-79
2022/06/15 10:37:30;;;;;;;4.30;2.47;;;;;;;-143.84;45.76;44934.81;4968774;28;20880;-79
2022/06/15 10:40:00;;;;;;;4.03;2.40;;;;;;;-143.84;46.31;44951.97;4968410;28;20587;-79
2022/06/15 10:42:35;;;;;;;5.43;2.13;;;;;;;-143.84;47.69;44951.97;4968784;28;21015;-79
2022/06/15 10:45:06;;;;;;;2.67;2.00;;;;;;;-143.84;48.97;44971.00;4969033;28;20484;-79
2022/06/15 10:47:42;;;;;;;4.70;2.77;;;;;;;-143.84;49.40;44934.81;4968598;28;20475;-77
2022/06/15 10:50:21;;;;;;;5.53;2.30;;;;;;;-143.84;50.44;44946.25;4968928;28;20441;-77
2022/06/15 10:52:54;;;;;;;2.53;1.83;;;;;;;-143.84;50.56;44953.88;4968395;28;20497;-76
2022/06/15 11:04:14;;;;;;;5.80;2.40;;;;;;;-143.84;49.08;44974.81;4968777;28;20468;-77
2022/06/15 11:06:47;;;;;;;5.57;2.47;;;;;;;-143.84;50.09;44991.94;4968658;28;20418;-77
2022/06/15 11:09:31;;;;;;;7.93;2.57;;;;;;;-143.84;50.40;44984.31;4968148;28;20458;-77
2022/06/15 11:12:01;;;;;;;5.97;2.37;;;;;;;-143.84;51.26;44963.38;4968204;28;20453;-77
2022/06/15 11:14:32;;;;;;;2.20;2.00;;;;;;;-143.84;51.29;44959.56;4968106;28;20500;-77
2022/06/15 11:20:06;;;;;;;4.13;2.23;;;;;;;-143.84;47.15;44986.22;4968278;28;20995;-77
2022/06/15 11:22:35;;;;;;;8.90;2.30;;;;;;;-143.84;47.75;44938.63;4954919;28;20545;-77
2022/06/15 11:25:10;;;;;;;5.73;2.33;;;;;;;-143.84;48.67;44959.56;4948832;29;20485;-77
2022/06/15 11:27:42;;;;;;;12.60;2.60;;;;;;;-143.84;49.22;44931.00;4948952;28;20438;-76
2022/06/15 11:30:21;;;;;;;3.93;1.70;;;;;;;-143.84;49.05;44997.66;4948742;28;20524;-77
2022/06/15 11:32:55;;;;;;;3.63;1.80;;;;;;;-143.84;49.69;44978.63;4948866;29;20442;-77
2022/06/15 11:35:28;;;;;;;13.93;2.90;;;;;;;-143.84;54.12;44991.94;4948546;29;20457;-76
2022/06/15 11:38:03;;;;;;;3.27;2.03;;;;;;;-143.84;51.01;44974.81;4948162;29;20514;-77
2022/06/15 11:40:41;;;;;;;2.33;2.00;;;;;;;-143.84;49.60;44980.53;4948286;28;20540;-77
2022/06/15 11:43:20;;;;;;;4.03;2.40;;;;;;;-143.84;47.70;44976.72;4949100;28;20488;-77
2022/06/15 11:45:58;;;;;;;7.83;2.07;;;;;;;-143.84;48.88;44965.28;4948998;28;20975;-77
2022/06/15 11:48:37;;;;;;;5.80;2.07;;;;;;;-143.84;47.20;44997.66;4948933;28;20848;-76
2022/06/15 11:51:18;;;;;;;3.70;1.90;;;;;;;-143.84;45.86;44984.31;4948658;28;20446;-76
2022/06/15 11:54:00;;;;;;;6.77;2.03;;;;;;;-143.84;45.73;44974.81;4948690;28;20489;-77